sensor_id;sensor_type;location;lat;lon;timestamp;P1;durP1;ratioP1;P2;durP2;ratioP2
20511;SDS011;10414;52.074;5.126;2024-03-22T00:00:39;40.08;;;17.52;;
20511;SDS011;10414;52.074;5.126;2024-03-22T00:03:05;37.40;;;17.00;;
20511;SDS011;10414;52.074;5.126;2024-03-22T00:05:32;41.03;;;16.75;;
20511;SDS011;10414;52.074;5.126;2024-03-22T00:07:58;43.55;;;18.13;;
20511;SDS011;10414;52.074;5.126;2024-03-22T00:10:26;40.50;;;17.50;;
20511;SDS011;10414;52.074;5.126;2024-03-22T00:12:52;43.25;;;17.45;;
20511;SDS011;10414;52.074;5.126;2024-03-22T00:15:20;41.78;;;17.30;;
20511;SDS011;10414;52.074;5.126;2024-03-22T00:17:47;47.35;;;18.50;;
20511;SDS011;10414;52.074;5.126;2024-03-22T00:20:14;42.00;;;18.23;;
20511;SDS011;10414;52.074;5.126;2024-03-22T00:22:40;42.65;;;17.15;;
20511;SDS011;10414;52.074;5.126;2024-03-22T00:25:08;42.58;;;18.02;;
20511;SDS011;10414;52.074;5.126;2024-03-22T00:27:34;44.58;;;17.95;;
20511;SDS011;10414;52.074;5.126;2024-03-22T00:30:01;43.00;;;18.38;;
20511;SDS011;10414;52.074;5.126;2024-03-22T00:32:29;45.58;;;17.40;;
20511;SDS011;10414;52.074;5.126;2024-03-22T00:34:56;47.80;;;18.50;;
20511;SDS011;10414;52.074;5.126;2024-03-22T00:37:22;41.90;;;17.88;;
20511;SDS011;10414;52.074;5.126;2024-03-22T00:39:49;43.08;;;18.27;;
20511;SDS011;10414;52.074;5.126;2024-03-22T00:42:15;39.78;;;16.85;;
20511;SDS011;10414;52.074;5.126;2024-03-22T00:44:43;48.50;;;19.38;;
20511;SDS011;10414;52.074;5.126;2024-03-22T00:47:09;41.40;;;18.42;;
20511;SDS011;10414;52.074;5.126;2024-03-22T00:49:37;47.35;;;17.85;;
20511;SDS011;10414;52.074;5.126;2024-03-22T00:52:03;43.97;;;18.20;;
20511;SDS011;10414;52.074;5.126;2024-03-22T00:54:31;44.40;;;19.60;;
20511;SDS011;10414;52.074;5.126;2024-03-22T00:56:57;43.72;;;18.92;;
20511;SDS011;10414;52.074;5.126;2024-03-22T00:59:24;44.20;;;18.05;;
20511;SDS011;10414;52.074;5.126;2024-03-22T01:01:50;46.15;;;18.95;;
20511;SDS011;10414;52.074;5.126;2024-03-22T01:04:17;42.22;;;17.83;;
20511;SDS011;10414;52.074;5.126;2024-03-22T01:06:45;47.53;;;18.27;;
20511;SDS011;10414;52.074;5.126;2024-03-22T01:09:12;46.30;;;18.83;;
20511;SDS011;10414;52.074;5.126;2024-03-22T01:11:38;45.60;;;18.40;;
20511;SDS011;10414;52.074;5.126;2024-03-22T01:14:05;39.85;;;17.27;;
20511;SDS011;10414;52.074;5.126;2024-03-22T01:16:32;40.72;;;17.48;;
20511;SDS011;10414;52.074;5.126;2024-03-22T01:18:59;35.80;;;16.75;;
20511;SDS011;10414;52.074;5.126;2024-03-22T01:21:25;43.53;;;17.80;;
20511;SDS011;10414;52.074;5.126;2024-03-22T01:23:53;42.78;;;16.63;;
20511;SDS011;10414;52.074;5.126;2024-03-22T01:26:20;40.72;;;16.48;;
20511;SDS011;10414;52.074;5.126;2024-03-22T01:28:47;39.95;;;15.85;;
20511;SDS011;10414;52.074;5.126;2024-03-22T01:31:13;41.33;;;16.55;;
20511;SDS011;10414;52.074;5.126;2024-03-22T01:33:41;38.15;;;17.23;;
20511;SDS011;10414;52.074;5.126;2024-03-22T01:36:07;40.75;;;17.17;;
20511;SDS011;10414;52.074;5.126;2024-03-22T01:38:34;43.08;;;17.33;;
20511;SDS011;10414;52.074;5.126;2024-03-22T01:41:01;38.67;;;16.60;;
20511;SDS011;10414;52.074;5.126;2024-03-22T01:43:29;36.45;;;16.73;;
20511;SDS011;10414;52.074;5.126;2024-03-22T01:45:55;39.05;;;16.83;;
20511;SDS011;10414;52.074;5.126;2024-03-22T01:48:22;37.97;;;16.58;;
20511;SDS011;10414;52.074;5.126;2024-03-22T01:50:48;41.50;;;16.42;;
20511;SDS011;10414;52.074;5.126;2024-03-22T01:53:15;39.20;;;17.85;;
20511;SDS011;10414;52.074;5.126;2024-03-22T01:55:42;44.90;;;18.98;;
20511;SDS011;10414;52.074;5.126;2024-03-22T01:58:11;42.17;;;17.75;;
20511;SDS011;10414;52.074;5.126;2024-03-22T02:00:37;42.00;;;17.48;;
20511;SDS011;10414;52.074;5.126;2024-03-22T02:03:05;43.92;;;19.02;;
20511;SDS011;10414;52.074;5.126;2024-03-22T02:05:31;44.85;;;19.90;;
20511;SDS011;10414;52.074;5.126;2024-03-22T02:07:58;51.28;;;21.58;;
20511;SDS011;10414;52.074;5.126;2024-03-22T02:10:24;50.70;;;21.50;;
20511;SDS011;10414;52.074;5.126;2024-03-22T02:12:52;51.65;;;22.92;;
20511;SDS011;10414;52.074;5.126;2024-03-22T02:15:19;53.53;;;22.90;;
20511;SDS011;10414;52.074;5.126;2024-03-22T02:17:46;63.08;;;23.10;;
20511;SDS011;10414;52.074;5.126;2024-03-22T02:20:12;57.75;;;22.83;;
20511;SDS011;10414;52.074;5.126;2024-03-22T02:22:40;57.03;;;22.38;;
20511;SDS011;10414;52.074;5.126;2024-03-22T02:25:07;56.55;;;22.40;;
20511;SDS011;10414;52.074;5.126;2024-03-22T02:27:35;54.85;;;22.40;;
20511;SDS011;10414;52.074;5.126;2024-03-22T02:30:01;57.15;;;22.67;;
20511;SDS011;10414;52.074;5.126;2024-03-22T02:32:28;61.17;;;23.33;;
20511;SDS011;10414;52.074;5.126;2024-03-22T02:34:54;62.70;;;23.42;;
20511;SDS011;10414;52.074;5.126;2024-03-22T02:37:21;56.08;;;23.13;;
20511;SDS011;10414;52.074;5.126;2024-03-22T02:39:48;58.35;;;22.20;;
20511;SDS011;10414;52.074;5.126;2024-03-22T02:42:16;57.78;;;23.02;;
20511;SDS011;10414;52.074;5.126;2024-03-22T02:44:42;54.38;;;21.08;;
20511;SDS011;10414;52.074;5.126;2024-03-22T02:47:10;51.47;;;20.10;;
20511;SDS011;10414;52.074;5.126;2024-03-22T02:49:37;53.65;;;21.20;;
20511;SDS011;10414;52.074;5.126;2024-03-22T02:52:04;52.50;;;19.75;;
20511;SDS011;10414;52.074;5.126;2024-03-22T02:54:30;50.72;;;19.27;;
20511;SDS011;10414;52.074;5.126;2024-03-22T02:56:58;46.83;;;18.30;;
20511;SDS011;10414;52.074;5.126;2024-03-22T02:59:26;52.45;;;18.88;;
20511;SDS011;10414;52.074;5.126;2024-03-22T03:01:53;51.50;;;18.53;;
20511;SDS011;10414;52.074;5.126;2024-03-22T03:04:19;59.67;;;19.63;;
20511;SDS011;10414;52.074;5.126;2024-03-22T03:06:47;57.75;;;20.70;;
20511;SDS011;10414;52.074;5.126;2024-03-22T03:09:13;55.92;;;20.30;;
20511;SDS011;10414;52.074;5.126;2024-03-22T03:11:40;57.85;;;21.15;;
20511;SDS011;10414;52.074;5.126;2024-03-22T03:14:06;54.45;;;17.65;;
20511;SDS011;10414;52.074;5.126;2024-03-22T03:16:35;50.00;;;18.13;;
20511;SDS011;10414;52.074;5.126;2024-03-22T03:19:01;46.33;;;16.55;;
20511;SDS011;10414;52.074;5.126;2024-03-22T03:21:28;37.22;;;14.52;;
20511;SDS011;10414;52.074;5.126;2024-03-22T03:23:55;37.03;;;14.25;;
20511;SDS011;10414;52.074;5.126;2024-03-22T03:26:22;41.65;;;14.65;;
20511;SDS011;10414;52.074;5.126;2024-03-22T03:28:48;41.17;;;14.77;;
20511;SDS011;10414;52.074;5.126;2024-03-22T03:31:15;46.00;;;16.55;;
20511;SDS011;10414;52.074;5.126;2024-03-22T03:33:43;46.72;;;16.70;;
20511;SDS011;10414;52.074;5.126;2024-03-22T03:36:10;42.65;;;15.02;;
20511;SDS011;10414;52.074;5.126;2024-03-22T03:38:36;46.92;;;16.55;;
20511;SDS011;10414;52.074;5.126;2024-03-22T03:41:03;43.85;;;15.35;;
20511;SDS011;10414;52.074;5.126;2024-03-22T03:43:30;44.00;;;16.05;;
20511;SDS011;10414;52.074;5.126;2024-03-22T03:45:57;41.97;;;15.63;;
20511;SDS011;10414;52.074;5.126;2024-03-22T03:48:23;39.92;;;15.13;;
20511;SDS011;10414;52.074;5.126;2024-03-22T03:50:54;45.05;;;15.65;;
20511;SDS011;10414;52.074;5.126;2024-03-22T03:53:24;41.17;;;15.20;;
20511;SDS011;10414;52.074;5.126;2024-03-22T03:55:51;43.63;;;15.88;;
20511;SDS011;10414;52.074;5.126;2024-03-22T03:58:17;42.08;;;14.07;;
20511;SDS011;10414;52.074;5.126;2024-03-22T04:00:44;47.15;;;16.83;;
20511;SDS011;10414;52.074;5.126;2024-03-22T04:03:10;45.05;;;16.17;;
20511;SDS011;10414;52.074;5.126;2024-03-22T04:05:37;43.58;;;15.43;;
20511;SDS011;10414;52.074;5.126;2024-03-22T04:08:05;48.75;;;16.55;;
20511;SDS011;10414;52.074;5.126;2024-03-22T04:10:33;38.38;;;15.27;;
20511;SDS011;10414;52.074;5.126;2024-03-22T04:12:59;41.30;;;16.13;;
20511;SDS011;10414;52.074;5.126;2024-03-22T04:15:26;44.20;;;14.70;;
20511;SDS011;10414;52.074;5.126;2024-03-22T04:17:52;38.45;;;14.40;;
20511;SDS011;10414;52.074;5.126;2024-03-22T04:20:19;49.13;;;15.98;;
20511;SDS011;10414;52.074;5.126;2024-03-22T04:22:45;42.15;;;16.27;;
20511;SDS011;10414;52.074;5.126;2024-03-22T04:25:16;43.13;;;16.05;;
20511;SDS011;10414;52.074;5.126;2024-03-22T04:27:42;50.95;;;17.15;;
20511;SDS011;10414;52.074;5.126;2024-03-22T04:30:10;44.97;;;15.43;;
20511;SDS011;10414;52.074;5.126;2024-03-22T04:32:36;46.17;;;15.00;;
20511;SDS011;10414;52.074;5.126;2024-03-22T04:35:03;37.35;;;14.40;;
20511;SDS011;10414;52.074;5.126;2024-03-22T04:37:29;38.83;;;15.13;;
20511;SDS011;10414;52.074;5.126;2024-03-22T04:39:56;47.60;;;16.42;;
20511;SDS011;10414;52.074;5.126;2024-03-22T04:42:25;45.03;;;16.58;;
20511;SDS011;10414;52.074;5.126;2024-03-22T04:44:51;37.38;;;15.52;;
20511;SDS011;10414;52.074;5.126;2024-03-22T04:47:18;42.85;;;16.00;;
20511;SDS011;10414;52.074;5.126;2024-03-22T04:49:44;38.28;;;15.32;;
20511;SDS011;10414;52.074;5.126;2024-03-22T04:52:12;41.47;;;16.15;;
20511;SDS011;10414;52.074;5.126;2024-03-22T04:54:38;46.20;;;17.05;;
20511;SDS011;10414;52.074;5.126;2024-03-22T04:57:05;45.70;;;16.45;;
20511;SDS011;10414;52.074;5.126;2024-03-22T04:59:32;51.95;;;17.33;;
20511;SDS011;10414;52.074;5.126;2024-03-22T05:01:59;47.03;;;17.13;;
20511;SDS011;10414;52.074;5.126;2024-03-22T05:04:26;43.17;;;17.95;;
20511;SDS011;10414;52.074;5.126;2024-03-22T05:06:53;49.70;;;18.65;;
20511;SDS011;10414;52.074;5.126;2024-03-22T05:09:19;44.95;;;18.50;;
20511;SDS011;10414;52.074;5.126;2024-03-22T05:11:46;46.72;;;17.55;;
20511;SDS011;10414;52.074;5.126;2024-03-22T05:14:15;49.83;;;18.63;;
20511;SDS011;10414;52.074;5.126;2024-03-22T05:16:44;44.95;;;16.58;;
20511;SDS011;10414;52.074;5.126;2024-03-22T05:19:10;44.95;;;18.23;;
20511;SDS011;10414;52.074;5.126;2024-03-22T05:21:37;48.38;;;17.60;;
20511;SDS011;10414;52.074;5.126;2024-03-22T05:24:03;45.75;;;17.20;;
20511;SDS011;10414;52.074;5.126;2024-03-22T05:26:31;52.00;;;19.80;;
20511;SDS011;10414;52.074;5.126;2024-03-22T05:29:01;45.53;;;17.73;;
20511;SDS011;10414;52.074;5.126;2024-03-22T05:31:28;49.55;;;19.25;;
20511;SDS011;10414;52.074;5.126;2024-03-22T05:33:56;50.50;;;19.20;;
20511;SDS011;10414;52.074;5.126;2024-03-22T05:36:23;43.17;;;17.20;;
20511;SDS011;10414;52.074;5.126;2024-03-22T05:38:49;46.00;;;18.25;;
20511;SDS011;10414;52.074;5.126;2024-03-22T05:41:16;40.58;;;16.58;;
20511;SDS011;10414;52.074;5.126;2024-03-22T05:43:42;46.67;;;17.83;;
20511;SDS011;10414;52.074;5.126;2024-03-22T05:46:09;47.55;;;18.77;;
20511;SDS011;10414;52.074;5.126;2024-03-22T05:48:36;48.65;;;16.48;;
20511;SDS011;10414;52.074;5.126;2024-03-22T05:51:04;49.67;;;18.23;;
20511;SDS011;10414;52.074;5.126;2024-03-22T05:53:31;47.38;;;18.73;;
20511;SDS011;10414;52.074;5.126;2024-03-22T05:55:58;50.92;;;17.73;;
20511;SDS011;10414;52.074;5.126;2024-03-22T05:58:24;46.78;;;17.85;;
20511;SDS011;10414;52.074;5.126;2024-03-22T06:00:51;53.33;;;18.23;;
20511;SDS011;10414;52.074;5.126;2024-03-22T06:03:18;43.75;;;17.08;;
20511;SDS011;10414;52.074;5.126;2024-03-22T06:05:46;47.78;;;17.33;;
20511;SDS011;10414;52.074;5.126;2024-03-22T06:08:13;45.03;;;17.33;;
20511;SDS011;10414;52.074;5.126;2024-03-22T06:10:44;44.05;;;16.52;;
20511;SDS011;10414;52.074;5.126;2024-03-22T06:13:10;44.17;;;16.25;;
20511;SDS011;10414;52.074;5.126;2024-03-22T06:15:37;45.22;;;16.75;;
20511;SDS011;10414;52.074;5.126;2024-03-22T06:18:03;39.88;;;15.75;;
20511;SDS011;10414;52.074;5.126;2024-03-22T06:20:31;39.35;;;16.73;;
20511;SDS011;10414;52.074;5.126;2024-03-22T06:22:57;41.80;;;16.48;;
20511;SDS011;10414;52.074;5.126;2024-03-22T06:25:25;36.53;;;15.02;;
20511;SDS011;10414;52.074;5.126;2024-03-22T06:27:55;36.83;;;14.45;;
20511;SDS011;10414;52.074;5.126;2024-03-22T06:30:22;39.40;;;14.80;;
20511;SDS011;10414;52.074;5.126;2024-03-22T06:32:48;41.05;;;14.10;;
20511;SDS011;10414;52.074;5.126;2024-03-22T06:35:15;38.33;;;14.48;;
20511;SDS011;10414;52.074;5.126;2024-03-22T06:37:41;37.88;;;13.85;;
20511;SDS011;10414;52.074;5.126;2024-03-22T06:40:09;36.47;;;14.90;;
20511;SDS011;10414;52.074;5.126;2024-03-22T06:42:37;35.75;;;13.85;;
20511;SDS011;10414;52.074;5.126;2024-03-22T06:45:04;34.85;;;13.90;;
20511;SDS011;10414;52.074;5.126;2024-03-22T06:47:31;39.83;;;15.00;;
20511;SDS011;10414;52.074;5.126;2024-03-22T06:49:58;36.95;;;13.90;;
20511;SDS011;10414;52.074;5.126;2024-03-22T06:52:24;37.08;;;14.50;;
20511;SDS011;10414;52.074;5.126;2024-03-22T06:54:51;34.60;;;13.77;;
20511;SDS011;10414;52.074;5.126;2024-03-22T06:57:18;32.78;;;14.15;;
20511;SDS011;10414;52.074;5.126;2024-03-22T06:59:47;35.83;;;14.52;;
20511;SDS011;10414;52.074;5.126;2024-03-22T07:02:13;31.98;;;13.23;;
20511;SDS011;10414;52.074;5.126;2024-03-22T07:04:40;33.60;;;12.77;;
20511;SDS011;10414;52.074;5.126;2024-03-22T07:07:06;32.63;;;12.88;;
20511;SDS011;10414;52.074;5.126;2024-03-22T07:09:33;30.63;;;12.20;;
20511;SDS011;10414;52.074;5.126;2024-03-22T07:12:00;28.70;;;12.55;;
20511;SDS011;10414;52.074;5.126;2024-03-22T07:14:28;33.70;;;12.07;;
20511;SDS011;10414;52.074;5.126;2024-03-22T07:16:56;32.90;;;13.27;;
20511;SDS011;10414;52.074;5.126;2024-03-22T07:19:23;31.48;;;12.50;;
20511;SDS011;10414;52.074;5.126;2024-03-22T07:21:49;36.65;;;13.57;;
20511;SDS011;10414;52.074;5.126;2024-03-22T07:24:16;33.92;;;13.45;;
20511;SDS011;10414;52.074;5.126;2024-03-22T07:26:42;30.90;;;12.75;;
20511;SDS011;10414;52.074;5.126;2024-03-22T07:29:10;36.03;;;13.40;;
20511;SDS011;10414;52.074;5.126;2024-03-22T07:31:36;35.67;;;12.80;;
20511;SDS011;10414;52.074;5.126;2024-03-22T07:34:04;31.95;;;12.65;;
20511;SDS011;10414;52.074;5.126;2024-03-22T07:36:30;36.67;;;13.13;;
20511;SDS011;10414;52.074;5.126;2024-03-22T07:38:58;35.75;;;12.90;;
20511;SDS011;10414;52.074;5.126;2024-03-22T07:41:24;37.78;;;14.65;;
20511;SDS011;10414;52.074;5.126;2024-03-22T07:43:52;33.45;;;13.70;;
20511;SDS011;10414;52.074;5.126;2024-03-22T07:46:18;30.88;;;12.43;;
20511;SDS011;10414;52.074;5.126;2024-03-22T07:48:46;37.53;;;13.25;;
20511;SDS011;10414;52.074;5.126;2024-03-22T07:51:13;37.47;;;14.70;;
20511;SDS011;10414;52.074;5.126;2024-03-22T07:53:41;37.50;;;13.10;;
20511;SDS011;10414;52.074;5.126;2024-03-22T07:56:07;31.75;;;12.77;;
20511;SDS011;10414;52.074;5.126;2024-03-22T07:58:34;29.92;;;12.00;;
20511;SDS011;10414;52.074;5.126;2024-03-22T08:01:00;33.35;;;13.50;;
20511;SDS011;10414;52.074;5.126;2024-03-22T08:03:27;32.10;;;12.45;;
20511;SDS011;10414;52.074;5.126;2024-03-22T08:05:53;28.67;;;11.48;;
20511;SDS011;10414;52.074;5.126;2024-03-22T08:08:22;30.98;;;11.63;;
20511;SDS011;10414;52.074;5.126;2024-03-22T08:10:48;25.88;;;11.13;;
20511;SDS011;10414;52.074;5.126;2024-03-22T08:13:15;30.50;;;11.52;;
20511;SDS011;10414;52.074;5.126;2024-03-22T08:15:42;27.25;;;10.93;;
20511;SDS011;10414;52.074;5.126;2024-03-22T08:18:10;24.88;;;8.57;;
20511;SDS011;10414;52.074;5.126;2024-03-22T08:20:37;25.40;;;9.82;;
20511;SDS011;10414;52.074;5.126;2024-03-22T08:23:04;20.73;;;8.77;;
20511;SDS011;10414;52.074;5.126;2024-03-22T08:25:32;25.42;;;9.88;;
20511;SDS011;10414;52.074;5.126;2024-03-22T08:27:59;25.40;;;10.38;;
20511;SDS011;10414;52.074;5.126;2024-03-22T08:30:25;28.83;;;9.45;;
20511;SDS011;10414;52.074;5.126;2024-03-22T08:32:52;26.05;;;9.35;;
20511;SDS011;10414;52.074;5.126;2024-03-22T08:35:18;23.35;;;8.95;;
20511;SDS011;10414;52.074;5.126;2024-03-22T08:37:46;23.08;;;9.10;;
20511;SDS011;10414;52.074;5.126;2024-03-22T08:40:12;22.40;;;9.15;;
20511;SDS011;10414;52.074;5.126;2024-03-22T08:42:41;31.95;;;8.68;;
20511;SDS011;10414;52.074;5.126;2024-03-22T08:45:07;30.65;;;9.93;;
20511;SDS011;10414;52.074;5.126;2024-03-22T08:47:35;23.20;;;9.00;;
20511;SDS011;10414;52.074;5.126;2024-03-22T08:50:01;27.40;;;9.15;;
20511;SDS011;10414;52.074;5.126;2024-03-22T08:52:28;23.00;;;10.25;;
20511;SDS011;10414;52.074;5.126;2024-03-22T08:54:56;25.17;;;10.07;;
20511;SDS011;10414;52.074;5.126;2024-03-22T08:57:23;30.77;;;9.85;;
20511;SDS011;10414;52.074;5.126;2024-03-22T08:59:51;33.55;;;10.52;;
20511;SDS011;10414;52.074;5.126;2024-03-22T09:02:18;23.98;;;9.77;;
20511;SDS011;10414;52.074;5.126;2024-03-22T09:04:45;28.58;;;9.85;;
20511;SDS011;10414;52.074;5.126;2024-03-22T09:07:12;26.75;;;9.35;;
20511;SDS011;10414;52.074;5.126;2024-03-22T09:09:38;25.13;;;8.77;;
20511;SDS011;10414;52.074;5.126;2024-03-22T09:12:06;26.92;;;10.18;;
20511;SDS011;10414;52.074;5.126;2024-03-22T09:14:33;24.98;;;9.45;;
20511;SDS011;10414;52.074;5.126;2024-03-22T09:17:01;24.45;;;9.68;;
20511;SDS011;10414;52.074;5.126;2024-03-22T09:19:28;29.90;;;9.95;;
20511;SDS011;10414;52.074;5.126;2024-03-22T09:21:54;25.08;;;8.80;;
20511;SDS011;10414;52.074;5.126;2024-03-22T09:24:22;25.27;;;8.35;;
20511;SDS011;10414;52.074;5.126;2024-03-22T09:26:48;26.40;;;8.68;;
20511;SDS011;10414;52.074;5.126;2024-03-22T09:29:15;24.15;;;7.88;;
20511;SDS011;10414;52.074;5.126;2024-03-22T09:31:41;21.77;;;8.18;;
20511;SDS011;10414;52.074;5.126;2024-03-22T09:34:11;23.85;;;8.80;;
20511;SDS011;10414;52.074;5.126;2024-03-22T09:36:37;23.23;;;7.82;;
20511;SDS011;10414;52.074;5.126;2024-03-22T09:39:05;19.80;;;8.25;;
20511;SDS011;10414;52.074;5.126;2024-03-22T09:41:32;21.88;;;8.45;;
20511;SDS011;10414;52.074;5.126;2024-03-22T09:44:00;26.55;;;8.52;;
20511;SDS011;10414;52.074;5.126;2024-03-22T09:46:28;21.15;;;8.15;;
20511;SDS011;10414;52.074;5.126;2024-03-22T09:48:55;18.80;;;8.65;;
20511;SDS011;10414;52.074;5.126;2024-03-22T09:51:24;22.23;;;8.50;;
20511;SDS011;10414;52.074;5.126;2024-03-22T09:53:52;24.55;;;9.02;;
20511;SDS011;10414;52.074;5.126;2024-03-22T09:56:20;21.15;;;8.30;;
20511;SDS011;10414;52.074;5.126;2024-03-22T09:58:48;17.55;;;7.97;;
20511;SDS011;10414;52.074;5.126;2024-03-22T10:01:14;19.58;;;8.18;;
20511;SDS011;10414;52.074;5.126;2024-03-22T10:03:42;18.00;;;8.32;;
20511;SDS011;10414;52.074;5.126;2024-03-22T10:06:09;21.10;;;7.97;;
20511;SDS011;10414;52.074;5.126;2024-03-22T10:08:37;19.42;;;9.35;;
20511;SDS011;10414;52.074;5.126;2024-03-22T10:11:04;22.30;;;9.60;;
20511;SDS011;10414;52.074;5.126;2024-03-22T10:13:31;27.75;;;8.80;;
20511;SDS011;10414;52.074;5.126;2024-03-22T10:15:57;22.60;;;9.75;;
20511;SDS011;10414;52.074;5.126;2024-03-22T10:18:25;18.75;;;8.85;;
20511;SDS011;10414;52.074;5.126;2024-03-22T10:20:58;27.23;;;9.77;;
20511;SDS011;10414;52.074;5.126;2024-03-22T10:23:26;19.88;;;9.30;;
20511;SDS011;10414;52.074;5.126;2024-03-22T10:25:53;22.88;;;9.70;;
20511;SDS011;10414;52.074;5.126;2024-03-22T10:28:21;27.90;;;10.07;;
20511;SDS011;10414;52.074;5.126;2024-03-22T10:30:47;18.13;;;8.70;;
20511;SDS011;10414;52.074;5.126;2024-03-22T10:33:15;22.55;;;9.80;;
20511;SDS011;10414;52.074;5.126;2024-03-22T10:35:44;19.58;;;8.50;;
20511;SDS011;10414;52.074;5.126;2024-03-22T10:38:12;17.73;;;8.20;;
20511;SDS011;10414;52.074;5.126;2024-03-22T10:40:38;23.17;;;9.15;;
20511;SDS011;10414;52.074;5.126;2024-03-22T10:43:07;17.77;;;7.80;;
20511;SDS011;10414;52.074;5.126;2024-03-22T10:45:33;18.10;;;8.70;;
20511;SDS011;10414;52.074;5.126;2024-03-22T10:48:01;21.88;;;9.57;;
20511;SDS011;10414;52.074;5.126;2024-03-22T10:50:29;20.45;;;8.63;;
20511;SDS011;10414;52.074;5.126;2024-03-22T10:52:58;21.90;;;9.18;;
20511;SDS011;10414;52.074;5.126;2024-03-22T10:55:26;20.77;;;9.05;;
20511;SDS011;10414;52.074;5.126;2024-03-22T10:57:55;14.75;;;7.57;;
20511;SDS011;10414;52.074;5.126;2024-03-22T11:00:28;20.75;;;8.80;;
20511;SDS011;10414;52.074;5.126;2024-03-22T11:02:56;19.02;;;9.25;;
20511;SDS011;10414;52.074;5.126;2024-03-22T11:05:23;21.10;;;9.13;;
20511;SDS011;10414;52.074;5.126;2024-03-22T11:07:58;16.85;;;8.02;;
20511;SDS011;10414;52.074;5.126;2024-03-22T11:10:25;18.17;;;8.90;;
20511;SDS011;10414;52.074;5.126;2024-03-22T11:12:53;23.00;;;8.05;;
20511;SDS011;10414;52.074;5.126;2024-03-22T11:15:19;17.98;;;8.48;;
20511;SDS011;10414;52.074;5.126;2024-03-22T11:17:47;17.27;;;8.57;;
20511;SDS011;10414;52.074;5.126;2024-03-22T11:20:14;17.77;;;8.57;;
20511;SDS011;10414;52.074;5.126;2024-03-22T11:22:41;17.13;;;8.40;;
20511;SDS011;10414;52.074;5.126;2024-03-22T11:25:08;18.55;;;8.98;;
20511;SDS011;10414;52.074;5.126;2024-03-22T11:27:35;19.55;;;8.02;;
20511;SDS011;10414;52.074;5.126;2024-03-22T11:30:01;18.33;;;8.10;;
20511;SDS011;10414;52.074;5.126;2024-03-22T11:32:29;17.55;;;7.97;;
20511;SDS011;10414;52.074;5.126;2024-03-22T11:34:57;15.48;;;7.13;;
20511;SDS011;10414;52.074;5.126;2024-03-22T11:37:24;15.95;;;7.15;;
20511;SDS011;10414;52.074;5.126;2024-03-22T11:39:50;11.70;;;5.85;;
20511;SDS011;10414;52.074;5.126;2024-03-22T11:42:17;15.57;;;6.13;;
20511;SDS011;10414;52.074;5.126;2024-03-22T11:44:44;13.82;;;6.43;;
20511;SDS011;10414;52.074;5.126;2024-03-22T11:47:11;11.02;;;5.30;;
20511;SDS011;10414;52.074;5.126;2024-03-22T11:49:37;12.10;;;6.05;;
20511;SDS011;10414;52.074;5.126;2024-03-22T11:52:07;11.32;;;5.47;;
20511;SDS011;10414;52.074;5.126;2024-03-22T11:54:34;15.30;;;5.55;;
20511;SDS011;10414;52.074;5.126;2024-03-22T11:57:02;11.25;;;5.13;;
20511;SDS011;10414;52.074;5.126;2024-03-22T11:59:29;13.80;;;5.82;;
20511;SDS011;10414;52.074;5.126;2024-03-22T12:01:56;10.82;;;5.00;;
20511;SDS011;10414;52.074;5.126;2024-03-22T12:04:22;10.98;;;5.20;;
20511;SDS011;10414;52.074;5.126;2024-03-22T12:06:49;12.02;;;5.60;;
20511;SDS011;10414;52.074;5.126;2024-03-22T12:09:19;12.35;;;5.53;;
20511;SDS011;10414;52.074;5.126;2024-03-22T12:11:47;14.15;;;6.30;;
20511;SDS011;10414;52.074;5.126;2024-03-22T12:14:13;11.98;;;5.90;;
20511;SDS011;10414;52.074;5.126;2024-03-22T12:16:40;14.18;;;6.05;;
20511;SDS011;10414;52.074;5.126;2024-03-22T12:19:06;16.35;;;6.47;;
20511;SDS011;10414;52.074;5.126;2024-03-22T12:21:33;14.63;;;6.15;;
20511;SDS011;10414;52.074;5.126;2024-03-22T12:24:00;14.13;;;5.65;;
20511;SDS011;10414;52.074;5.126;2024-03-22T12:26:29;14.98;;;5.90;;
20511;SDS011;10414;52.074;5.126;2024-03-22T12:28:57;12.57;;;5.90;;
20511;SDS011;10414;52.074;5.126;2024-03-22T12:31:24;19.10;;;6.63;;
20511;SDS011;10414;52.074;5.126;2024-03-22T12:33:50;15.23;;;7.05;;
20511;SDS011;10414;52.074;5.126;2024-03-22T12:36:18;16.83;;;7.82;;
20511;SDS011;10414;52.074;5.126;2024-03-22T12:38:44;15.25;;;6.90;;
20511;SDS011;10414;52.074;5.126;2024-03-22T12:41:11;19.15;;;7.07;;
20511;SDS011;10414;52.074;5.126;2024-03-22T12:43:39;17.50;;;7.30;;
20511;SDS011;10414;52.074;5.126;2024-03-22T12:46:06;16.98;;;7.47;;
20511;SDS011;10414;52.074;5.126;2024-03-22T12:48:33;16.08;;;6.75;;
20511;SDS011;10414;52.074;5.126;2024-03-22T12:51:00;17.33;;;7.03;;
20511;SDS011;10414;52.074;5.126;2024-03-22T12:53:26;16.67;;;7.03;;
20511;SDS011;10414;52.074;5.126;2024-03-22T12:55:53;13.85;;;6.57;;
20511;SDS011;10414;52.074;5.126;2024-03-22T12:58:19;12.80;;;5.47;;
20511;SDS011;10414;52.074;5.126;2024-03-22T13:00:48;12.65;;;6.22;;
20511;SDS011;10414;52.074;5.126;2024-03-22T13:03:14;14.82;;;6.32;;
20511;SDS011;10414;52.074;5.126;2024-03-22T13:05:42;16.38;;;6.50;;
20511;SDS011;10414;52.074;5.126;2024-03-22T13:08:09;15.00;;;6.30;;
20511;SDS011;10414;52.074;5.126;2024-03-22T13:10:36;13.05;;;5.43;;
20511;SDS011;10414;52.074;5.126;2024-03-22T13:13:03;11.48;;;5.45;;
20511;SDS011;10414;52.074;5.126;2024-03-22T13:15:30;15.00;;;5.50;;
20511;SDS011;10414;52.074;5.126;2024-03-22T13:17:59;14.05;;;5.30;;
20511;SDS011;10414;52.074;5.126;2024-03-22T13:20:26;12.60;;;5.10;;
20511;SDS011;10414;52.074;5.126;2024-03-22T13:22:52;14.25;;;5.78;;
20511;SDS011;10414;52.074;5.126;2024-03-22T13:25:20;17.02;;;4.88;;
20511;SDS011;10414;52.074;5.126;2024-03-22T13:27:46;12.82;;;4.78;;
20511;SDS011;10414;52.074;5.126;2024-03-22T13:30:13;16.13;;;5.38;;
20511;SDS011;10414;52.074;5.126;2024-03-22T13:32:40;17.05;;;5.47;;
20511;SDS011;10414;52.074;5.126;2024-03-22T13:35:09;12.07;;;4.80;;
20511;SDS011;10414;52.074;5.126;2024-03-22T13:37:35;11.45;;;5.00;;
20511;SDS011;10414;52.074;5.126;2024-03-22T13:40:02;10.27;;;4.97;;
20511;SDS011;10414;52.074;5.126;2024-03-22T13:42:28;14.27;;;4.43;;
20511;SDS011;10414;52.074;5.126;2024-03-22T13:44:56;14.13;;;5.60;;
20511;SDS011;10414;52.074;5.126;2024-03-22T13:47:22;12.75;;;5.03;;
20511;SDS011;10414;52.074;5.126;2024-03-22T13:49:49;14.02;;;5.43;;
20511;SDS011;10414;52.074;5.126;2024-03-22T13:52:17;13.77;;;6.00;;
20511;SDS011;10414;52.074;5.126;2024-03-22T13:54:45;14.95;;;5.55;;
20511;SDS011;10414;52.074;5.126;2024-03-22T13:57:11;12.52;;;5.45;;
20511;SDS011;10414;52.074;5.126;2024-03-22T13:59:39;17.67;;;6.70;;
20511;SDS011;10414;52.074;5.126;2024-03-22T14:02:05;13.80;;;6.18;;
20511;SDS011;10414;52.074;5.126;2024-03-22T14:04:32;13.32;;;5.97;;
20511;SDS011;10414;52.074;5.126;2024-03-22T14:06:59;14.18;;;5.60;;
20511;SDS011;10414;52.074;5.126;2024-03-22T14:09:31;19.25;;;6.72;;
20511;SDS011;10414;52.074;5.126;2024-03-22T14:11:57;12.55;;;5.78;;
20511;SDS011;10414;52.074;5.126;2024-03-22T14:14:25;17.88;;;6.32;;
20511;SDS011;10414;52.074;5.126;2024-03-22T14:16:51;13.60;;;5.53;;
20511;SDS011;10414;52.074;5.126;2024-03-22T14:19:18;18.88;;;6.10;;
20511;SDS011;10414;52.074;5.126;2024-03-22T14:21:45;20.52;;;6.45;;
20511;SDS011;10414;52.074;5.126;2024-03-22T14:24:12;18.13;;;6.90;;